Time;durP1;ratioP1;P1;durP2;ratioP2;P2;SDS_P1;SDS_P2;PMS_P1;PMS_P2;Temp;Humidity;BMP_temperature;BMP_pressure;BME280_temperature;BME280_humidity;BME280_pressure;Samples;Min_cycle;Max_cycle;Signal;HPM_P1;HPM_P2
2021/11/27 00:02:20;;;;;;;6.40;5.67;;;;;;;3.62;79.73;98198.50;5043677;28;20226;-77
2021/11/27 00:04:47;;;;;;;6.60;5.80;;;;;;;3.69;79.71;98200.91;5045237;28;21147;-77
2021/11/27 00:07:13;;;;;;;6.43;5.67;;;;;;;3.65;80.01;98194.13;5045222;28;20221;-77
2021/11/27 00:09:39;;;;;;;6.23;5.50;;;;;;;3.54;79.62;98186.66;5048266;28;20208;-78
2021/11/27 00:12:07;;;;;;;6.27;5.63;;;;;;;3.62;79.73;98181.28;5047575;28;20368;-78
2021/11/27 00:14:34;;;;;;;5.87;5.13;;;;;;;3.60;79.83;98171.91;5044414;28;20200;-78
2021/11/27 00:17:03;;;;;;;6.93;6.20;;;;;;;3.67;80.57;98161.38;5045431;28;20220;-78
2021/11/27 00:19:29;;;;;;;7.17;6.47;;;;;;;3.54;80.34;98163.44;5035597;28;20263;-78
2021/11/27 00:21:56;;;;;;;6.50;5.90;;;;;;;3.59;81.08;98145.28;5034973;28;20254;-78
2021/11/27 00:24:22;;;;;;;6.60;6.10;;;;;;;3.60;80.93;98140.97;5034245;28;20206;-78
2021/11/27 00:26:48;;;;;;;6.30;5.80;;;;;;;3.54;80.78;98145.38;5035438;28;20202;-78
2021/11/27 00:29:15;;;;;;;5.93;5.43;;;;;;;3.65;81.01;98142.53;5035467;28;20252;-77
2021/11/27 00:31:42;;;;;;;5.83;5.33;;;;;;;3.58;80.35;98151.31;5035622;28;20245;-77
2021/11/27 00:34:10;;;;;;;5.63;5.20;;;;;;;3.59;79.89;98155.59;5034581;28;20663;-78
2021/11/27 00:36:37;;;;;;;6.17;5.63;;;;;;;3.59;80.83;98147.88;5061153;28;20255;-78
2021/11/27 00:39:06;;;;;;;6.20;5.70;;;;;;;3.62;81.09;98126.28;5061481;28;20226;-78
2021/11/27 00:41:32;;;;;;;6.17;5.57;;;;;;;3.63;80.62;98140.88;5054970;28;20275;-78
2021/11/27 00:43:58;;;;;;;5.43;5.00;;;;;;;3.67;80.58;98139.91;5055533;28;20256;-78
2021/11/27 00:46:25;;;;;;;6.00;5.50;;;;;;;3.65;80.59;98136.50;5055121;28;20227;-78
2021/11/27 00:48:51;;;;;;;5.30;4.90;;;;;;;3.60;81.16;98140.97;5055329;28;20228;-78
2021/11/27 00:51:22;;;;;;;5.50;5.00;;;;;;;3.56;81.20;98125.56;5055153;28;20700;-78
2021/11/27 00:53:49;;;;;;;6.10;5.30;;;;;;;3.48;81.68;98116.34;5054604;28;20205;-78
2021/11/27 00:56:16;;;;;;;5.83;5.33;;;;;;;3.52;82.13;98090.44;5054439;28;20227;-78
2021/11/27 00:58:43;;;;;;;5.70;5.20;;;;;;;3.46;83.11;98048.50;5054774;28;20193;-78
2021/11/27 01:01:12;;;;;;;6.03;5.53;;;;;;;3.49;84.48;98004.56;5054879;28;20259;-78
2021/11/27 01:03:40;;;;;;;5.20;4.80;;;;;;;3.53;84.76;97993.28;5054680;28;20201;-78
2021/11/27 01:06:10;;;;;;;5.63;5.03;;;;;;;3.51;84.11;98002.81;5059807;28;20752;-78
2021/11/27 01:08:39;;;;;;;5.53;5.13;;;;;;;3.52;84.68;98000.16;5066219;28;20609;-78
2021/11/27 01:11:08;;;;;;;5.23;4.73;;;;;;;3.57;84.34;98006.03;5075838;28;20216;-78
2021/11/27 01:13:36;;;;;;;5.00;4.50;;;;;;;3.58;84.14;98012.03;5076617;28;20202;-77
2021/11/27 01:16:03;;;;;;;5.10;4.70;;;;;;;3.54;84.10;98013.84;5075158;28;20258;-78
2021/11/27 01:18:30;;;;;;;5.23;4.73;;;;;;;3.54;84.57;97997.53;5075239;28;20202;-78
2021/11/27 01:20:59;;;;;;;5.17;4.67;;;;;;;3.54;84.81;97989.81;5074610;28;20251;-78
2021/11/27 01:23:26;;;;;;;5.37;4.87;;;;;;;3.55;84.26;97996.66;5073733;28;20227;-78
2021/11/27 01:25:54;;;;;;;4.90;4.50;;;;;;;3.52;84.39;97996.75;5074357;28;20627;-78
2021/11/27 01:28:23;;;;;;;5.03;4.63;;;;;;;3.57;84.45;97993.13;5074451;28;20615;-79
2021/11/27 01:30:54;;;;;;;4.70;4.30;;;;;;;3.54;85.19;97966.59;5074939;28;20197;-78
2021/11/27 01:33:20;;;;;;;4.90;4.50;;;;;;;3.58;84.86;97993.97;5073933;28;20201;-78
2021/11/27 01:35:48;;;;;;;5.13;4.63;;;;;;;3.41;84.91;97985.91;5067476;28;20218;-78
2021/11/27 01:38:15;;;;;;;4.40;4.00;;;;;;;3.47;84.56;97980.56;5059298;28;20205;-79
2021/11/27 01:40:43;;;;;;;6.00;5.20;;;;;;;3.37;84.65;97993.75;5054061;28;20656;-78
2021/11/27 01:43:11;;;;;;;4.17;3.80;;;;;;;3.36;85.34;97968.00;5053666;28;20228;-78
2021/11/27 01:45:38;;;;;;;4.60;4.20;;;;;;;3.46;85.26;97965.97;5054448;28;20266;-78
2021/11/27 01:48:07;;;;;;;4.97;4.50;;;;;;;3.49;84.77;97965.88;5054195;28;20206;-78
2021/11/27 01:50:38;;;;;;;4.27;3.87;;;;;;;3.47;84.53;97983.13;5054634;28;20215;-78
2021/11/27 01:53:06;;;;;;;4.10;3.70;;;;;;;3.53;84.15;97991.53;5054788;28;20243;-78
2021/11/27 01:55:33;;;;;;;4.33;3.60;;;;;;;3.42;83.70;98013.38;5053877;28;20220;-78
2021/11/27 01:58:00;;;;;;;3.77;3.33;;;;;;;3.43;84.61;97995.28;5054547;28;20201;-78
2021/11/27 02:00:31;;;;;;;4.00;3.67;;;;;;;3.52;84.12;97995.00;5053844;28;20210;-77
2021/11/27 02:02:58;;;;;;;4.00;3.70;;;;;;;3.56;84.85;97981.13;5052457;28;20252;-77
2021/11/27 02:05:25;;;;;;;4.53;3.83;;;;;;;3.62;85.03;97979.25;5052327;28;20288;-77
2021/11/27 02:07:52;;;;;;;3.60;3.13;;;;;;;3.61;84.36;97981.00;5060528;28;20191;-77
2021/11/27 02:10:18;;;;;;;3.83;3.53;;;;;;;3.69;83.60;97994.50;5051880;28;20257;-78
2021/11/27 02:12:46;;;;;;;3.73;3.43;;;;;;;3.61;83.57;97998.19;5051950;28;20213;-74
2021/11/27 02:15:13;;;;;;;3.50;3.17;;;;;;;3.56;84.22;98000.91;5052360;28;20271;-78
2021/11/27 02:17:41;;;;;;;3.27;3.07;;;;;;;3.48;83.65;98002.88;5052512;28;20263;-77
2021/11/27 02:20:10;;;;;;;4.10;3.80;;;;;;;3.60;84.19;97991.34;5052668;28;20249;-77
2021/11/27 02:22:38;;;;;;;3.50;3.20;;;;;;;3.58;83.77;98004.28;5052379;28;20201;-77
2021/11/27 02:25:09;;;;;;;3.80;3.50;;;;;;;3.64;83.58;97995.53;5051930;28;20221;-77
2021/11/27 02:27:35;;;;;;;3.40;3.10;;;;;;;3.69;83.47;98006.56;5052428;28;20208;-78
2021/11/27 02:30:02;;;;;;;3.53;3.23;;;;;;;3.67;83.35;98009.19;5052825;28;20198;-77
2021/11/27 02:32:29;;;;;;;4.13;3.40;;;;;;;3.65;83.30;98021.28;5052203;28;20644;-77
2021/11/27 02:34:55;;;;;;;3.53;3.23;;;;;;;3.66;82.82;98032.44;5052611;28;20225;-77
2021/11/27 02:37:21;;;;;;;3.43;3.13;;;;;;;3.69;83.04;98038.38;5060464;28;20197;-77
2021/11/27 02:39:49;;;;;;;3.63;3.33;;;;;;;3.73;82.80;98031.38;5071884;28;20212;-77
2021/11/27 02:42:16;;;;;;;3.60;3.30;;;;;;;3.76;83.11;98041.59;5072096;28;20205;-78
2021/11/27 02:44:42;;;;;;;3.87;3.57;;;;;;;3.70;82.12;98055.50;5072526;28;20233;-77
2021/11/27 02:47:10;;;;;;;3.43;3.23;;;;;;;3.69;81.85;98074.47;5072592;28;20205;-76
2021/11/27 02:49:37;;;;;;;3.80;3.50;;;;;;;3.78;82.35;98058.72;5071982;28;20202;-78
2021/11/27 02:52:05;;;;;;;3.37;3.07;;;;;;;3.56;81.56;98079.13;5072206;28;20217;-78
2021/11/27 02:54:32;;;;;;;3.43;3.13;;;;;;;3.65;82.45;98066.84;5072469;28;20198;-77
2021/11/27 02:56:59;;;;;;;3.27;3.07;;;;;;;3.61;82.19;98068.69;5073791;28;20616;-77
2021/11/27 02:59:28;;;;;;;3.30;3.10;;;;;;;3.67;82.44;98063.34;5076815;28;20262;-77
2021/11/27 03:01:57;;;;;;;3.63;3.33;;;;;;;3.69;82.44;98064.16;5077184;28;20209;-78
2021/11/27 03:04:24;;;;;;;3.47;3.17;;;;;;;3.67;82.45;98057.38;5076597;28;20250;-78
2021/11/27 03:06:51;;;;;;;4.17;3.83;;;;;;;3.70;83.24;98044.34;5061920;28;20200;-76
2021/11/27 03:09:18;;;;;;;3.77;3.47;;;;;;;3.64;82.08;98060.84;5060659;28;20203;-77
2021/11/27 03:11:45;;;;;;;4.07;3.77;;;;;;;3.50;81.76;98078.47;5055894;28;20224;-78
2021/11/27 03:14:12;;;;;;;3.40;3.10;;;;;;;3.52;82.08;98066.38;5055942;28;20200;-78
2021/11/27 03:16:39;;;;;;;3.40;3.10;;;;;;;3.58;82.48;98053.31;5056303;28;20275;-78
2021/11/27 03:19:06;;;;;;;3.10;2.80;;;;;;;3.62;82.00;98059.22;5056512;28;20202;-79
2021/11/27 03:21:32;;;;;;;3.87;3.57;;;;;;;3.61;81.88;98065.25;5056237;28;20197;-77
2021/11/27 03:23:59;;;;;;;3.83;3.43;;;;;;;3.65;82.28;98062.56;5056136;28;20205;-78
2021/11/27 03:26:26;;;;;;;4.53;3.50;;;;;;;3.69;81.49;98076.22;5056352;28;20221;-78
2021/11/27 03:28:52;;;;;;;3.77;3.40;;;;;;;3.74;81.56;98093.22;5056844;28;20271;-78
2021/11/27 03:31:20;;;;;;;3.50;3.20;;;;;;;3.76;81.24;98091.44;5056226;28;20264;-78
2021/11/27 03:33:47;;;;;;;3.23;3.03;;;;;;;3.68;80.86;98092.56;5056529;28;20202;-78
2021/11/27 03:36:15;;;;;;;3.57;3.27;;;;;;;3.71;81.63;98090.75;5062976;28;20214;-78
2021/11/27 03:38:41;;;;;;;3.47;3.17;;;;;;;3.74;81.40;98084.66;5067662;28;20256;-78
2021/11/27 03:41:09;;;;;;;3.10;2.80;;;;;;;3.77;81.25;98092.31;5076367;28;20197;-78
2021/11/27 03:43:37;;;;;;;3.37;3.17;;;;;;;3.78;81.84;98092.25;5076272;28;20204;-78
2021/11/27 03:46:04;;;;;;;2.97;2.77;;;;;;;3.88;81.45;98099.72;5075861;28;20272;-78
2021/11/27 03:48:34;;;;;;;2.80;2.60;;;;;;;3.93;80.60;98121.94;5076299;28;20248;-78
2021/11/27 03:51:03;;;;;;;3.23;2.93;;;;;;;3.88;80.67;98118.63;5076636;28;20199;-78
2021/11/27 03:53:31;;;;;;;3.00;2.77;;;;;;;3.81;80.77;98134.38;5076243;28;20250;-78
2021/11/27 03:55:58;;;;;;;3.60;3.17;;;;;;;3.83;81.86;98102.44;5076044;28;20772;-77
2021/11/27 03:58:25;;;;;;;2.83;2.63;;;;;;;3.85;82.35;98085.19;5076203;28;20201;-78
2021/11/27 04:00:54;;;;;;;3.10;2.90;;;;;;;3.88;81.80;98074.75;5076456;28;20246;-77
2021/11/27 04:03:25;;;;;;;4.30;2.77;;;;;;;3.89;81.67;98091.94;5075837;28;20255;-78
2021/11/27 04:05:56;;;;;;;3.23;2.93;;;;;;;3.91;82.01;98085.00;5069431;28;20223;-77
2021/11/27 04:08:22;;;;;;;3.13;2.87;;;;;;;3.81;81.55;98103.41;5067922;28;20267;-78
2021/11/27 04:10:50;;;;;;;2.80;2.60;;;;;;;3.81;81.65;98103.41;5075543;28;20620;-77
2021/11/27 04:13:17;;;;;;;2.70;2.50;;;;;;;3.77;83.20;98053.63;5075746;28;20282;-78
2021/11/27 04:15:46;;;;;;;2.70;2.50;;;;;;;3.83;83.23;98044.84;5075782;28;20275;-78
2021/11/27 04:18:13;;;;;;;2.60;2.40;;;;;;;3.84;83.32;98026.72;5076558;28;20206;-78
2021/11/27 04:20:42;;;;;;;2.83;2.57;;;;;;;3.72;83.73;98014.19;5075705;28;20267;-78
2021/11/27 04:23:11;;;;;;;3.00;2.70;;;;;;;3.77;83.09;98035.56;5075264;28;20245;-78
2021/11/27 04:25:37;;;;;;;2.70;2.50;;;;;;;3.76;84.12;98011.47;5075543;28;20697;-78
2021/11/27 04:28:04;;;;;;;4.00;2.60;;;;;;;3.87;83.48;98026.63;5075804;28;20200;-78
2021/11/27 04:30:32;;;;;;;2.70;2.50;;;;;;;3.87;82.17;98075.66;5075527;28;20282;-78
2021/11/27 04:32:59;;;;;;;2.57;2.37;;;;;;;3.94;81.59;98097.81;5081848;28;20255;-78
2021/11/27 04:35:27;;;;;;;2.87;2.57;;;;;;;3.95;81.12;98120.16;5075863;28;20225;-77
2021/11/27 04:37:54;;;;;;;2.40;2.20;;;;;;;4.01;81.58;98103.66;5072934;28;20195;-78
2021/11/27 04:40:23;;;;;;;2.77;2.57;;;;;;;3.84;81.29;98123.94;5081967;28;20258;-78
2021/11/27 04:42:49;;;;;;;2.20;2.00;;;;;;;3.90;81.87;98103.09;5076989;28;20250;-78
2021/11/27 04:45:16;;;;;;;2.27;2.17;;;;;;;3.91;82.71;98086.75;5075633;28;20559;-78
2021/11/27 04:47:42;;;;;;;2.27;2.10;;;;;;;3.94;82.53;98091.81;5074902;28;20206;-78
2021/11/27 04:50:11;;;;;;;2.40;2.20;;;;;;;3.90;82.09;98113.44;5075432;28;20297;-78
2021/11/27 04:52:38;;;;;;;2.30;2.10;;;;;;;3.94;82.23;98109.88;5075095;28;20221;-79
2021/11/27 04:55:06;;;;;;;2.20;2.10;;;;;;;4.02;81.37;98125.97;5075418;28;20280;-78
2021/11/27 04:57:35;;;;;;;2.40;2.13;;;;;;;4.04;80.88;98139.66;5075276;28;20227;-79
2021/11/27 05:00:01;;;;;;;1.90;1.80;;;;;;;4.07;80.68;98168.00;5079196;28;20672;-78
2021/11/27 05:02:28;;;;;;;1.80;1.70;;;;;;;4.07;80.76;98174.91;5082603;28;20231;-78
2021/11/27 05:04:54;;;;;;;2.00;1.90;;;;;;;4.04;81.75;98141.41;5081013;28;20259;-80
2021/11/27 05:07:20;;;;;;;2.10;1.90;;;;;;;4.00;81.70;98135.50;5072330;28;20192;-76
2021/11/27 05:09:47;;;;;;;1.80;1.70;;;;;;;3.96;81.49;98145.09;5065497;28;20201;-78
2021/11/27 05:12:13;;;;;;;2.03;1.80;;;;;;;3.80;81.59;98142.97;5063616;28;20226;-79
2021/11/27 05:14:41;;;;;;;2.53;1.73;;;;;;;3.83;82.01;98130.84;5062583;28;20205;-78
2021/11/27 05:17:07;;;;;;;1.70;1.60;;;;;;;3.79;83.02;98111.19;5063843;28;20256;-78
2021/11/27 05:19:34;;;;;;;1.83;1.73;;;;;;;3.88;83.01;98092.00;5062157;28;20250;-78
2021/11/27 05:22:01;;;;;;;2.00;1.90;;;;;;;3.87;83.32;98091.16;5064314;28;20202;-78
2021/11/27 05:24:27;;;;;;;1.70;1.60;;;;;;;3.88;83.00;98092.00;5063390;28;20202;-77
2021/11/27 05:26:56;;;;;;;2.10;1.97;;;;;;;3.86;82.66;98099.75;5064756;28;20205;-78
2021/11/27 05:29:23;;;;;;;2.07;1.87;;;;;;;3.89;82.98;98099.69;5064256;28;20235;-78
2021/11/27 05:31:53;;;;;;;1.90;1.80;;;;;;;3.93;83.32;98103.88;5065424;28;20296;-78
2021/11/27 05:34:33;;;;;;;2.00;1.90;;;;;;;3.85;83.14;98085.19;5065688;28;20213;-77
2021/11/27 05:37:01;;;;;;;2.17;2.00;;;;;;;3.91;83.04;98084.16;5072935;28;20209;-78
2021/11/27 05:39:27;;;;;;;2.10;1.90;;;;;;;3.77;83.13;98092.31;5081002;28;20247;-78
2021/11/27 05:41:54;;;;;;;2.67;2.03;;;;;;;3.77;83.20;98090.56;5083697;28;20262;-78
2021/11/27 05:44:20;;;;;;;2.10;2.00;;;;;;;3.84;83.17;98088.66;5084597;28;20200;-78
2021/11/27 05:46:47;;;;;;;2.60;2.40;;;;;;;3.86;83.38;98094.59;5086117;28;20227;-78
2021/11/27 05:49:15;;;;;;;2.73;2.53;;;;;;;3.88;83.41;98085.09;5085226;28;20233;-78
2021/11/27 05:51:41;;;;;;;2.40;2.20;;;;;;;3.93;83.63;98083.22;5083810;28;20204;-78
2021/11/27 05:54:07;;;;;;;2.80;2.60;;;;;;;3.95;83.65;98085.75;5084995;28;20222;-78
2021/11/27 05:56:34;;;;;;;2.23;2.13;;;;;;;3.91;83.80;98074.69;5086558;28;20246;-78
2021/11/27 05:59:00;;;;;;;2.60;2.40;;;;;;;3.90;84.22;98062.66;5085486;28;20234;-78
2021/11/27 06:01:26;;;;;;;2.80;2.40;;;;;;;3.92;84.19;98057.44;5085052;28;20224;-77
2021/11/27 06:03:53;;;;;;;2.77;2.57;;;;;;;3.93;83.75;98066.91;5083996;28;20202;-78
2021/11/27 06:06:21;;;;;;;3.10;2.90;;;;;;;3.98;83.91;98078.78;5078023;28;20286;-78
2021/11/27 06:08:47;;;;;;;2.80;2.60;;;;;;;3.97;83.46;98086.56;5067281;28;20571;-79
2021/11/27 06:11:14;;;;;;;3.20;2.83;;;;;;;3.96;83.41;98092.59;5073865;28;20258;-77
2021/11/27 06:13:41;;;;;;;2.73;2.53;;;;;;;3.95;83.64;98101.25;5072940;28;20259;-78
2021/11/27 06:16:08;;;;;;;2.83;2.63;;;;;;;3.97;83.13;98113.22;5073514;28;20771;-78
2021/11/27 06:18:34;;;;;;;2.70;2.50;;;;;;;3.98;83.35;98117.50;5073106;28;20579;-78
2021/11/27 06:21:01;;;;;;;3.37;3.07;;;;;;;4.01;83.22;98123.44;5073734;28;20204;-77
2021/11/27 06:23:29;;;;;;;2.80;2.60;;;;;;;3.94;83.75;98115.91;5073058;28;20204;-79
2021/11/27 06:25:56;;;;;;;2.90;2.70;;;;;;;3.87;82.94;98127.28;5073527;28;20220;-78
2021/11/27 06:28:24;;;;;;;2.93;2.73;;;;;;;3.88;83.49;98131.53;5073671;28;20204;-78
2021/11/27 06:30:51;;;;;;;3.00;2.80;;;;;;;3.95;84.17;98107.25;5073172;28;20252;-77
2021/11/27 06:33:17;;;;;;;3.37;3.13;;;;;;;3.98;84.02;98107.16;5074678;28;20221;-77
2021/11/27 06:35:44;;;;;;;3.20;2.90;;;;;;;4.00;84.24;98108.84;5068009;28;20225;-78
2021/11/27 06:38:10;;;;;;;3.67;2.93;;;;;;;4.03;84.02;98106.19;5065804;28;20225;-77
2021/11/27 06:40:38;;;;;;;4.20;2.70;;;;;;;4.06;83.72;98122.41;5057547;28;20200;-78
2021/11/27 06:43:04;;;;;;;3.97;3.33;;;;;;;4.05;83.78;98132.78;5056598;28;20643;-78
2021/11/27 06:45:32;;;;;;;4.13;3.83;;;;;;;4.02;83.64;98138.03;5057122;28;20222;-78
2021/11/27 06:47:59;;;;;;;3.43;3.23;;;;;;;4.04;83.67;98133.66;5056478;28;20206;-75
2021/11/27 06:50:25;;;;;;;3.47;3.17;;;;;;;4.09;83.59;98124.91;5056807;28;20250;-78
2021/11/27 06:52:52;;;;;;;3.30;3.00;;;;;;;4.06;84.19;98116.41;5056829;28;20225;-78
2021/11/27 06:55:18;;;;;;;3.27;2.97;;;;;;;4.05;84.29;98107.81;5057235;28;20276;-78
2021/11/27 06:57:46;;;;;;;4.07;3.20;;;;;;;4.06;84.16;98104.31;5055738;28;20662;-79
2021/11/27 07:00:13;;;;;;;3.90;3.60;;;;;;;4.11;83.12;98133.44;5056893;28;20228;-76
2021/11/27 07:02:40;;;;;;;3.67;3.30;;;;;;;4.10;83.30;98147.25;5056929;28;20206;-78
2021/11/27 07:05:07;;;;;;;4.03;3.73;;;;;;;4.16;83.11;98148.78;5056591;28;20304;-78
2021/11/27 07:07:34;;;;;;;3.90;3.60;;;;;;;4.18;82.87;98165.06;5075217;28;20203;-78
2021/11/27 07:10:00;;;;;;;4.47;3.53;;;;;;;4.17;83.52;98150.50;5076410;28;20669;-79
2021/11/27 07:12:27;;;;;;;4.43;4.03;;;;;;;4.20;83.21;98158.13;5076434;28;20201;-78
2021/11/27 07:14:54;;;;;;;4.33;3.93;;;;;;;4.18;84.10;98144.41;5076809;28;20225;-78
2021/11/27 07:17:21;;;;;;;4.30;4.00;;;;;;;4.14;84.63;98119.59;5077003;28;20223;-78
2021/11/27 07:19:47;;;;;;;4.03;3.73;;;;;;;4.16;83.87;98149.66;5076283;28;20734;-78
2021/11/27 07:22:13;;;;;;;4.50;4.07;;;;;;;4.19;83.26;98148.72;5075998;28;20208;-78
2021/11/27 07:24:40;;;;;;;5.80;4.33;;;;;;;4.17;83.91;98145.34;5075961;28;20247;-78
2021/11/27 07:27:08;;;;;;;4.53;4.10;;;;;;;4.21;83.73;98148.66;5075447;28;20202;-78
2021/11/27 07:29:36;;;;;;;4.30;4.00;;;;;;;4.17;83.82;98161.66;5075637;28;20201;-77
2021/11/27 07:32:04;;;;;;;4.30;3.87;;;;;;;4.22;83.15;98169.25;5076127;28;20676;-78
2021/11/27 07:34:31;;;;;;;3.77;3.47;;;;;;;4.26;83.30;98170.88;5076084;28;20224;-78
2021/11/27 07:36:57;;;;;;;5.10;4.23;;;;;;;4.25;83.05;98182.09;5065409;28;20247;-78
2021/11/27 07:39:24;;;;;;;4.63;4.30;;;;;;;4.18;83.27;98190.91;5055931;28;20252;-77
2021/11/27 07:41:50;;;;;;;4.23;3.93;;;;;;;4.17;84.08;98174.56;5054906;28;20286;-78
2021/11/27 07:44:19;;;;;;;4.37;3.97;;;;;;;4.20;83.69;98175.38;5055711;28;20255;-77
2021/11/27 07:46:47;;;;;;;3.60;3.30;;;;;;;4.24;83.49;98195.03;5056017;28;20229;-78
2021/11/27 07:49:15;;;;;;;4.07;3.67;;;;;;;4.25;83.25;98199.31;5056154;28;20265;-78
2021/11/27 07:51:41;;;;;;;4.53;4.13;;;;;;;4.26;83.62;98188.09;5055785;28;20206;-78
2021/11/27 07:54:07;;;;;;;4.23;3.83;;;;;;;4.25;83.77;98189.00;5056041;28;20225;-78
2021/11/27 07:56:34;;;;;;;3.63;3.33;;;;;;;4.22;84.69;98158.94;5055293;28;20264;-78
2021/11/27 07:59:00;;;;;;;4.20;3.90;;;;;;;4.22;85.24;98137.44;5055699;28;20258;-77
2021/11/27 08:01:26;;;;;;;3.80;3.50;;;;;;;4.26;84.63;98147.66;5055925;28;20211;-78
2021/11/27 08:03:53;;;;;;;4.17;3.87;;;;;;;4.27;84.40;98159.66;5055528;28;20235;-79
2021/11/27 08:06:21;;;;;;;5.07;3.80;;;;;;;4.35;84.24;98160.25;5062940;28;20232;-78
2021/11/27 08:08:49;;;;;;;4.10;3.80;;;;;;;4.37;83.81;98180.88;5066837;28;20200;-78
2021/11/27 08:11:15;;;;;;;3.67;3.37;;;;;;;4.36;83.52;98198.13;5075423;28;20576;-78
2021/11/27 08:13:43;;;;;;;3.83;3.53;;;;;;;4.30;83.03;98216.38;5075442;28;20711;-78
2021/11/27 08:16:10;;;;;;;3.93;3.63;;;;;;;4.32;82.82;98221.47;5075532;28;20279;-79
2021/11/27 08:18:36;;;;;;;4.30;3.90;;;;;;;4.34;83.34;98214.53;5075330;28;20255;-78
2021/11/27 08:21:04;;;;;;;3.90;3.50;;;;;;;4.37;83.27;98211.88;5075370;28;20669;-78
2021/11/27 08:23:31;;;;;;;4.00;3.70;;;;;;;4.41;83.77;98207.47;5074539;28;20737;-78
2021/11/27 08:25:58;;;;;;;3.57;3.37;;;;;;;4.37;84.05;98191.22;5075347;28;20271;-77
2021/11/27 08:28:26;;;;;;;3.70;3.40;;;;;;;4.42;84.01;98198.81;5075597;28;20254;-78
2021/11/27 08:30:53;;;;;;;3.83;3.53;;;;;;;4.45;84.26;98201.31;5075273;28;20214;-78
2021/11/27 08:33:19;;;;;;;3.60;3.30;;;;;;;4.47;83.81;98215.03;5074918;28;20226;-78
2021/11/27 08:35:45;;;;;;;3.40;3.20;;;;;;;4.51;84.23;98203.69;5066658;28;20275;-78
2021/11/27 08:38:12;;;;;;;4.00;3.60;;;;;;;4.54;84.36;98208.78;5064018;28;20205;-78
2021/11/27 08:40:40;;;;;;;3.80;3.50;;;;;;;4.49;83.75;98223.56;5055445;28;20211;-78
2021/11/27 08:43:06;;;;;;;3.93;3.50;;;;;;;4.52;84.19;98211.41;5053687;28;20206;-78
2021/11/27 08:45:33;;;;;;;3.43;3.17;;;;;;;4.31;83.81;98220.63;5043710;28;20292;-78
2021/11/27 08:47:59;;;;;;;3.37;3.13;;;;;;;4.40;84.01;98222.13;5045034;28;20203;-78
2021/11/27 08:50:26;;;;;;;3.63;3.33;;;;;;;4.43;84.05;98218.59;5045024;28;20204;-77
2021/11/27 08:52:52;;;;;;;3.97;3.60;;;;;;;4.40;84.16;98214.38;5041895;28;20270;-77
2021/11/27 08:55:19;;;;;;;3.40;3.17;;;;;;;4.37;84.42;98199.78;5042374;28;20220;-77
2021/11/27 08:57:47;;;;;;;3.33;3.03;;;;;;;4.44;84.90;98197.03;5043093;28;20215;-77
2021/11/27 09:00:14;;;;;;;3.23;3.03;;;;;;;4.48;85.05;98191.75;5041657;28;20223;-77
2021/11/27 09:02:41;;;;;;;4.00;2.97;;;;;;;4.35;84.28;98214.50;5042686;28;20250;-77
2021/11/27 09:05:09;;;;;;;2.93;2.53;;;;;;;4.44;84.36;98215.09;5044583;28;20226;-77
2021/11/27 09:07:35;;;;;;;3.17;2.90;;;;;;;4.43;84.50;98216.84;5048214;28;20198;-77
2021/11/27 09:10:02;;;;;;;3.30;3.10;;;;;;;4.37;84.61;98212.72;5043067;28;20204;-77
2021/11/27 09:12:28;;;;;;;3.23;2.93;;;;;;;4.44;85.02;98194.44;5042757;28;20647;-77
2021/11/27 09:14:56;;;;;;;2.93;2.73;;;;;;;4.18;83.05;98238.25;5041376;28;20230;-77
2021/11/27 09:17:25;;;;;;;2.63;2.43;;;;;;;4.26;84.16;98226.81;5042334;28;20252;-77
2021/11/27 09:19:51;;;;;;;3.13;2.93;;;;;;;4.33;84.47;98226.59;5043463;28;20204;-77
2021/11/27 09:22:17;;;;;;;2.67;2.47;;;;;;;4.27;83.58;98246.59;5041134;28;20625;-76
2021/11/27 09:24:44;;;;;;;3.10;2.80;;;;;;;4.33;83.73;98264.50;5042567;28;20218;-76
2021/11/27 09:27:10;;;;;;;2.93;2.73;;;;;;;4.33;83.44;98261.94;5042940;28;20265;-77
2021/11/27 09:29:39;;;;;;;4.30;3.87;;;;;;;4.26;83.75;98263.84;5041160;28;20674;-77
2021/11/27 09:32:07;;;;;;;2.97;2.77;;;;;;;4.16;84.05;98258.09;5041254;28;20556;-77
2021/11/27 09:34:34;;;;;;;3.70;3.17;;;;;;;4.21;85.47;98226.97;5041441;28;20700;-77
2021/11/27 09:37:02;;;;;;;3.20;2.90;;;;;;;4.16;85.34;98219.38;5044199;28;20206;-77
2021/11/27 09:39:29;;;;;;;2.60;2.40;;;;;;;4.14;84.63;98233.19;5043593;28;20206;-76
2021/11/27 09:41:57;;;;;;;3.00;2.80;;;;;;;4.27;84.76;98237.13;5041790;28;20201;-77
2021/11/27 09:44:24;;;;;;;2.67;2.47;;;;;;;4.34;84.95;98235.19;5042560;28;20640;-77
2021/11/27 09:46:51;;;;;;;2.10;2.00;;;;;;;4.38;84.14;98250.56;5040830;28;20203;-77
2021/11/27 09:49:21;;;;;;;1.87;1.77;;;;;;;4.49;84.56;98252.81;5042296;28;20202;-76
2021/11/27 09:51:49;;;;;;;2.30;2.10;;;;;;;4.49;83.87;98280.41;5042713;28;20204;-77
2021/11/27 09:54:17;;;;;;;2.37;2.17;;;;;;;4.44;83.38;98292.59;5041322;28;20785;-78
2021/11/27 09:56:44;;;;;;;3.80;2.40;;;;;;;4.53;84.13;98290.59;5040956;28;20220;-78
2021/11/27 09:59:10;;;;;;;2.30;1.97;;;;;;;4.44;83.06;98308.97;5041896;28;20207;-77
2021/11/27 10:01:40;;;;;;;2.27;1.80;;;;;;;4.48;83.58;98301.94;5042038;28;20276;-77
2021/11/27 10:04:09;;;;;;;3.03;2.20;;;;;;;4.54;83.77;98288.88;5041819;28;20216;-77
2021/11/27 10:06:39;;;;;;;2.07;1.93;;;;;;;4.54;83.66;98288.88;5042173;28;20907;-78
2021/11/27 10:09:08;;;;;;;2.00;1.80;;;;;;;4.56;83.80;98289.69;5042707;28;20269;-78
2021/11/27 10:11:36;;;;;;;1.80;1.70;;;;;;;4.52;83.41;98306.13;5041553;28;20236;-76
2021/11/27 10:14:03;;;;;;;2.00;1.90;;;;;;;4.42;83.15;98303.00;5042198;28;20253;-77
2021/11/27 10:16:31;;;;;;;1.70;1.60;;;;;;;4.36;84.03;98301.44;5043172;28;20226;-78
2021/11/27 10:19:06;;;;;;;1.70;1.60;;;;;;;4.45;83.88;98295.13;5042075;28;20206;-78
2021/11/27 10:21:34;;;;;;;1.70;1.60;;;;;;;4.47;83.73;98308.84;5041591;28;20224;-76
2021/11/27 10:24:16;;;;;;;1.60;1.50;;;;;;;4.35;84.55;98286.81;5042719;28;20268;-77
2021/11/27 10:26:43;;;;;;;1.90;1.40;;;;;;;4.48;84.65;98266.66;5043472;28;20223;-77
2021/11/27 10:29:19;;;;;;;1.40;1.30;;;;;;;4.59;85.90;98258.56;5042496;28;20299;-77
2021/11/27 10:31:47;;;;;;;1.00;1.00;;;;;;;4.60;83.70;98288.69;5042936;28;20292;-77
2021/11/27 10:34:18;;;;;;;1.20;1.10;;;;;;;4.35;83.35;98319.53;5042490;28;20223;-77
2021/11/27 10:36:46;;;;;;;3.63;1.47;;;;;;;4.70;87.17;98194.50;5041620;28;20272;-77
2021/11/27 10:39:13;;;;;;;1.30;1.20;;;;;;;4.73;83.97;98277.06;5041548;28;20203;-76
2021/11/27 10:41:56;;;;;;;1.20;1.10;;;;;;;4.90;84.86;98257.66;5041587;28;20265;-78
2021/11/27 10:44:27;;;;;;;1.30;1.20;;;;;;;5.03;83.87;98289.97;5042520;28;20206;-77
2021/11/27 10:47:08;;;;;;;1.50;1.40;;;;;;;5.07;82.86;98332.91;5041932;28;20204;-77
2021/11/27 10:49:35;;;;;;;1.00;1.00;;;;;;;5.02;81.26;98389.13;5041919;28;20212;-78
2021/11/27 10:52:06;;;;;;;0.90;0.90;;;;;;;5.10;81.72;98391.47;5041375;28;20218;-78
2021/11/27 10:54:44;;;;;;;1.30;1.20;;;;;;;5.17;83.29;98328.31;5041986;28;20262;-77
2021/11/27 10:57:28;;;;;;;1.37;1.10;;;;;;;5.26;82.64;98353.91;5041761;28;20269;-77
2021/11/27 10:59:55;;;;;;;0.97;0.97;;;;;;;5.31;81.79;98377.03;5041840;28;20212;-77
2021/11/27 11:02:23;;;;;;;0.97;0.90;;;;;;;5.23;80.70;98422.97;5041598;28;20266;-77
2021/11/27 11:05:01;;;;;;;1.23;1.10;;;;;;;5.21;81.85;98429.94;5041520;28;20608;-76
2021/11/27 11:07:28;;;;;;;1.17;1.17;;;;;;;5.19;81.26;98424.81;5042160;28;20294;-78
2021/11/27 11:10:21;;;;;;;1.20;1.10;;;;;;;5.31;81.06;98428.75;5042534;28;20208;-75
2021/11/27 11:12:51;;;;;;;2.87;2.67;;;;;;;5.12;80.22;98433.66;5041044;28;20212;-78
2021/11/27 11:15:20;;;;;;;2.07;1.60;;;;;;;5.11;81.58;98432.81;5042277;28;20226;-77
2021/11/27 11:17:49;;;;;;;1.97;1.87;;;;;;;4.94;80.47;98446.22;5043504;28;20191;-77
2021/11/27 11:20:18;;;;;;;1.17;1.10;;;;;;;4.88;81.14;98427.47;5045935;28;20564;-77
2021/11/27 11:23:04;;;;;;;2.10;2.00;;;;;;;5.07;82.85;98374.28;5045677;28;20241;-77
2021/11/27 11:25:33;;;;;;;1.43;1.33;;;;;;;5.00;81.97;98415.91;5046519;28;20257;-77
2021/11/27 11:28:12;;;;;;;2.50;2.30;;;;;;;4.88;81.29;98409.34;5045690;28;20210;-75
2021/11/27 11:30:40;;;;;;;2.73;2.10;;;;;;;4.96;82.20;98420.31;5046652;28;20680;-77
2021/11/27 11:33:07;;;;;;;3.10;2.40;;;;;;;5.09;82.01;98405.28;5045712;28;20737;-77
2021/11/27 11:35:35;;;;;;;1.70;1.60;;;;;;;5.06;81.29;98424.34;5045970;28;20259;-77
2021/11/27 11:38:02;;;;;;;2.50;2.30;;;;;;;4.70;80.75;98454.66;5045576;28;20204;-77
2021/11/27 11:40:29;;;;;;;1.90;1.80;;;;;;;4.87;82.76;98395.56;5046041;28;20869;-77
2021/11/27 11:42:58;;;;;;;5.47;1.90;;;;;;;4.83;82.42;98396.53;5045994;28;20198;-77
2021/11/27 11:45:25;;;;;;;4.90;3.37;;;;;;;4.80;81.99;98395.78;5045847;28;20232;-77